sensor_id;sensor_type;location;lat;lon;timestamp;temperature;humidity
13405;DHT22;6773;51.192;7.024;2023-03-13T00:00:34;9.60;99.90
13405;DHT22;6773;51.192;7.024;2023-03-13T00:05:26;9.60;99.90
13405;DHT22;6773;51.192;7.024;2023-03-13T00:07:51;9.60;99.90
13405;DHT22;6773;51.192;7.024;2023-03-13T00:12:43;9.70;99.90
13405;DHT22;6773;51.192;7.024;2023-03-13T00:17:34;9.70;99.90
13405;DHT22;6773;51.192;7.024;2023-03-13T00:20:00;9.70;99.90
13405;DHT22;6773;51.192;7.024;2023-03-13T00:24:52;9.80;99.90
13405;DHT22;6773;51.192;7.024;2023-03-13T00:27:17;9.80;99.90
13405;DHT22;6773;51.192;7.024;2023-03-13T00:29:43;9.90;99.90
13405;DHT22;6773;51.192;7.024;2023-03-13T00:32:08;9.90;99.90
13405;DHT22;6773;51.192;7.024;2023-03-13T00:34:34;9.90;99.90
13405;DHT22;6773;51.192;7.024;2023-03-13T00:37:00;9.90;99.90
13405;DHT22;6773;51.192;7.024;2023-03-13T00:39:25;9.90;99.90
13405;DHT22;6773;51.192;7.024;2023-03-13T00:44:17;9.90;99.90
13405;DHT22;6773;51.192;7.024;2023-03-13T00:46:42;9.90;99.90
13405;DHT22;6773;51.192;7.024;2023-03-13T00:49:08;9.90;99.90
13405;DHT22;6773;51.192;7.024;2023-03-13T00:51:34;9.90;99.90
13405;DHT22;6773;51.192;7.024;2023-03-13T00:56:26;9.90;99.90
13405;DHT22;6773;51.192;7.024;2023-03-13T01:03:54;9.80;99.90
13405;DHT22;6773;51.192;7.024;2023-03-13T01:06:22;9.80;99.90
13405;DHT22;6773;51.192;7.024;2023-03-13T01:08:49;9.70;99.90
13405;DHT22;6773;51.192;7.024;2023-03-13T01:11:18;9.70;99.90
13405;DHT22;6773;51.192;7.024;2023-03-13T01:13:44;9.60;99.90
13405;DHT22;6773;51.192;7.024;2023-03-13T01:18:38;9.50;99.90
13405;DHT22;6773;51.192;7.024;2023-03-13T01:21:04;9.50;99.90
13405;DHT22;6773;51.192;7.024;2023-03-13T01:23:30;9.50;99.90
13405;DHT22;6773;51.192;7.024;2023-03-13T01:25:56;9.50;99.90
13405;DHT22;6773;51.192;7.024;2023-03-13T01:28:23;9.40;99.90
13405;DHT22;6773;51.192;7.024;2023-03-13T01:30:48;9.40;99.90
13405;DHT22;6773;51.192;7.024;2023-03-13T01:33:14;9.30;99.90
13405;DHT22;6773;51.192;7.024;2023-03-13T01:35:40;9.40;99.90
13405;DHT22;6773;51.192;7.024;2023-03-13T01:38:06;9.40;99.90
13405;DHT22;6773;51.192;7.024;2023-03-13T01:40:41;9.40;99.90
13405;DHT22;6773;51.192;7.024;2023-03-13T01:48:30;9.60;99.90
13405;DHT22;6773;51.192;7.024;2023-03-13T01:51:00;9.60;99.90
13405;DHT22;6773;51.192;7.024;2023-03-13T01:53:29;9.60;99.90
13405;DHT22;6773;51.192;7.024;2023-03-13T01:55:56;9.60;99.90
13405;DHT22;6773;51.192;7.024;2023-03-13T01:58:24;9.60;99.90
13405;DHT22;6773;51.192;7.024;2023-03-13T02:00:51;9.60;99.90
13405;DHT22;6773;51.192;7.024;2023-03-13T02:03:19;9.70;99.90
13405;DHT22;6773;51.192;7.024;2023-03-13T02:05:47;9.70;99.90
13405;DHT22;6773;51.192;7.024;2023-03-13T02:08:20;9.70;99.90
13405;DHT22;6773;51.192;7.024;2023-03-13T02:10:52;9.70;99.90
13405;DHT22;6773;51.192;7.024;2023-03-13T02:13:19;9.70;99.90
13405;DHT22;6773;51.192;7.024;2023-03-13T02:15:45;9.80;99.90
13405;DHT22;6773;51.192;7.024;2023-03-13T02:18:12;9.80;99.90
13405;DHT22;6773;51.192;7.024;2023-03-13T02:20:38;9.80;99.90
13405;DHT22;6773;51.192;7.024;2023-03-13T02:23:21;9.70;99.90
13405;DHT22;6773;51.192;7.024;2023-03-13T02:25:51;9.70;99.90
13405;DHT22;6773;51.192;7.024;2023-03-13T02:28:20;9.70;99.90
13405;DHT22;6773;51.192;7.024;2023-03-13T02:30:49;9.60;99.90
13405;DHT22;6773;51.192;7.024;2023-03-13T02:33:16;9.70;99.90
13405;DHT22;6773;51.192;7.024;2023-03-13T02:35:43;9.60;99.90
13405;DHT22;6773;51.192;7.024;2023-03-13T02:38:12;9.60;99.90
13405;DHT22;6773;51.192;7.024;2023-03-13T02:40:41;9.60;99.90
13405;DHT22;6773;51.192;7.024;2023-03-13T02:43:10;9.60;99.90
13405;DHT22;6773;51.192;7.024;2023-03-13T02:45:36;9.60;99.90
13405;DHT22;6773;51.192;7.024;2023-03-13T02:48:02;9.60;99.90
13405;DHT22;6773;51.192;7.024;2023-03-13T02:50:28;9.60;99.90
13405;DHT22;6773;51.192;7.024;2023-03-13T02:53:00;9.60;99.90
13405;DHT22;6773;51.192;7.024;2023-03-13T02:55:31;9.50;99.90
13405;DHT22;6773;51.192;7.024;2023-03-13T02:57:59;9.50;99.90
13405;DHT22;6773;51.192;7.024;2023-03-13T03:02:52;9.50;99.90
13405;DHT22;6773;51.192;7.024;2023-03-13T03:05:18;9.60;99.90
13405;DHT22;6773;51.192;7.024;2023-03-13T03:07:44;9.50;99.90
13405;DHT22;6773;51.192;7.024;2023-03-13T03:10:10;9.40;99.90
13405;DHT22;6773;51.192;7.024;2023-03-13T03:12:36;9.40;99.90
13405;DHT22;6773;51.192;7.024;2023-03-13T03:15:02;9.50;99.90
13405;DHT22;6773;51.192;7.024;2023-03-13T03:17:29;9.50;99.90
13405;DHT22;6773;51.192;7.024;2023-03-13T03:19:55;9.50;99.90
13405;DHT22;6773;51.192;7.024;2023-03-13T03:27:13;9.60;99.90
13405;DHT22;6773;51.192;7.024;2023-03-13T03:29:38;9.60;99.90
13405;DHT22;6773;51.192;7.024;2023-03-13T03:32:04;9.70;99.90
13405;DHT22;6773;51.192;7.024;2023-03-13T03:34:30;9.70;99.90
13405;DHT22;6773;51.192;7.024;2023-03-13T03:36:55;9.70;99.90
13405;DHT22;6773;51.192;7.024;2023-03-13T03:39:21;9.70;99.90
13405;DHT22;6773;51.192;7.024;2023-03-13T03:41:47;9.70;99.90
13405;DHT22;6773;51.192;7.024;2023-03-13T03:44:12;9.70;99.90
13405;DHT22;6773;51.192;7.024;2023-03-13T03:49:04;9.80;99.90
13405;DHT22;6773;51.192;7.024;2023-03-13T03:51:29;9.80;99.90
13405;DHT22;6773;51.192;7.024;2023-03-13T03:53:55;9.80;99.90
13405;DHT22;6773;51.192;7.024;2023-03-13T03:56:20;9.80;99.90
13405;DHT22;6773;51.192;7.024;2023-03-13T03:58:46;9.80;99.90
13405;DHT22;6773;51.192;7.024;2023-03-13T04:01:12;9.80;99.90
13405;DHT22;6773;51.192;7.024;2023-03-13T04:03:37;9.90;99.90
13405;DHT22;6773;51.192;7.024;2023-03-13T04:06:03;9.90;99.90
13405;DHT22;6773;51.192;7.024;2023-03-13T04:10:55;9.90;99.90
13405;DHT22;6773;51.192;7.024;2023-03-13T04:15:46;10.00;99.90
13405;DHT22;6773;51.192;7.024;2023-03-13T04:18:13;10.00;99.90
13405;DHT22;6773;51.192;7.024;2023-03-13T04:20:38;10.00;99.90
13405;DHT22;6773;51.192;7.024;2023-03-13T04:23:04;10.10;99.90
13405;DHT22;6773;51.192;7.024;2023-03-13T04:25:29;10.00;99.90
13405;DHT22;6773;51.192;7.024;2023-03-13T04:27:55;10.10;99.90
13405;DHT22;6773;51.192;7.024;2023-03-13T04:35:15;10.10;99.90
13405;DHT22;6773;51.192;7.024;2023-03-13T04:40:07;10.20;99.90
13405;DHT22;6773;51.192;7.024;2023-03-13T04:42:33;10.20;99.90
13405;DHT22;6773;51.192;7.024;2023-03-13T04:44:59;10.20;99.90
13405;DHT22;6773;51.192;7.024;2023-03-13T04:47:24;10.20;99.90
13405;DHT22;6773;51.192;7.024;2023-03-13T04:49:50;10.20;99.90
13405;DHT22;6773;51.192;7.024;2023-03-13T04:54:41;10.30;99.90
13405;DHT22;6773;51.192;7.024;2023-03-13T04:57:07;10.30;99.90
13405;DHT22;6773;51.192;7.024;2023-03-13T04:59:32;10.40;99.90
13405;DHT22;6773;51.192;7.024;2023-03-13T05:01:58;10.40;99.90
13405;DHT22;6773;51.192;7.024;2023-03-13T05:04:24;10.40;99.90
13405;DHT22;6773;51.192;7.024;2023-03-13T05:06:49;10.40;99.90
13405;DHT22;6773;51.192;7.024;2023-03-13T05:09:15;10.40;99.90
13405;DHT22;6773;51.192;7.024;2023-03-13T05:11:40;10.40;99.90
13405;DHT22;6773;51.192;7.024;2023-03-13T05:14:07;10.50;99.90
13405;DHT22;6773;51.192;7.024;2023-03-13T05:16:35;10.50;99.90
13405;DHT22;6773;51.192;7.024;2023-03-13T05:19:01;10.50;99.90
13405;DHT22;6773;51.192;7.024;2023-03-13T05:21:26;10.50;99.90
13405;DHT22;6773;51.192;7.024;2023-03-13T05:23:52;10.50;99.90
13405;DHT22;6773;51.192;7.024;2023-03-13T05:26:18;10.60;99.90
13405;DHT22;6773;51.192;7.024;2023-03-13T05:28:43;10.60;99.90
13405;DHT22;6773;51.192;7.024;2023-03-13T05:31:09;10.60;99.90
13405;DHT22;6773;51.192;7.024;2023-03-13T05:33:34;10.70;99.90
13405;DHT22;6773;51.192;7.024;2023-03-13T05:36:00;10.80;99.90
13405;DHT22;6773;51.192;7.024;2023-03-13T05:38:25;10.90;99.90
13405;DHT22;6773;51.192;7.024;2023-03-13T05:40:51;11.00;99.90
13405;DHT22;6773;51.192;7.024;2023-03-13T05:43:24;11.10;99.90
13405;DHT22;6773;51.192;7.024;2023-03-13T05:45:50;11.10;99.90
13405;DHT22;6773;51.192;7.024;2023-03-13T05:48:15;11.20;99.90
13405;DHT22;6773;51.192;7.024;2023-03-13T05:50:41;11.30;99.90
13405;DHT22;6773;51.192;7.024;2023-03-13T05:55:32;11.40;99.90
13405;DHT22;6773;51.192;7.024;2023-03-13T05:57:58;11.40;99.90
13405;DHT22;6773;51.192;7.024;2023-03-13T06:00:24;11.40;99.90
13405;DHT22;6773;51.192;7.024;2023-03-13T06:02:49;11.40;99.90
13405;DHT22;6773;51.192;7.024;2023-03-13T06:05:15;11.50;99.90
13405;DHT22;6773;51.192;7.024;2023-03-13T06:07:41;11.50;99.90
13405;DHT22;6773;51.192;7.024;2023-03-13T06:10:06;11.50;99.90
13405;DHT22;6773;51.192;7.024;2023-03-13T06:12:32;11.50;99.90
13405;DHT22;6773;51.192;7.024;2023-03-13T06:14:58;11.50;99.90
13405;DHT22;6773;51.192;7.024;2023-03-13T06:17:23;11.60;99.90
13405;DHT22;6773;51.192;7.024;2023-03-13T06:19:50;11.60;99.90
13405;DHT22;6773;51.192;7.024;2023-03-13T06:22:16;11.60;99.90
13405;DHT22;6773;51.192;7.024;2023-03-13T06:24:41;11.60;99.90
13405;DHT22;6773;51.192;7.024;2023-03-13T06:27:09;11.60;99.90
13405;DHT22;6773;51.192;7.024;2023-03-13T06:32:01;11.70;99.90
13405;DHT22;6773;51.192;7.024;2023-03-13T06:34:26;11.70;99.90
13405;DHT22;6773;51.192;7.024;2023-03-13T06:39:18;11.80;99.90
13405;DHT22;6773;51.192;7.024;2023-03-13T06:41:44;11.90;99.90
13405;DHT22;6773;51.192;7.024;2023-03-13T06:44:10;11.90;99.90
13405;DHT22;6773;51.192;7.024;2023-03-13T06:46:35;11.90;99.90
13405;DHT22;6773;51.192;7.024;2023-03-13T06:49:01;12.00;99.90
13405;DHT22;6773;51.192;7.024;2023-03-13T06:51:29;12.10;99.90
13405;DHT22;6773;51.192;7.024;2023-03-13T06:53:54;12.10;99.90
13405;DHT22;6773;51.192;7.024;2023-03-13T06:56:20;12.20;99.90
13405;DHT22;6773;51.192;7.024;2023-03-13T06:58:47;12.20;99.90
13405;DHT22;6773;51.192;7.024;2023-03-13T07:01:14;12.20;99.90
13405;DHT22;6773;51.192;7.024;2023-03-13T07:06:07;12.30;99.90
13405;DHT22;6773;51.192;7.024;2023-03-13T07:08:34;12.30;99.90
13405;DHT22;6773;51.192;7.024;2023-03-13T07:11:02;12.50;99.90
13405;DHT22;6773;51.192;7.024;2023-03-13T07:13:29;12.50;99.90
13405;DHT22;6773;51.192;7.024;2023-03-13T07:15:55;12.60;99.90
13405;DHT22;6773;51.192;7.024;2023-03-13T07:18:21;12.50;99.90
13405;DHT22;6773;51.192;7.024;2023-03-13T07:20:54;12.60;99.90
13405;DHT22;6773;51.192;7.024;2023-03-13T07:23:21;12.60;99.90
13405;DHT22;6773;51.192;7.024;2023-03-13T07:26:09;12.50;99.90
13405;DHT22;6773;51.192;7.024;2023-03-13T07:28:35;12.60;99.90
13405;DHT22;6773;51.192;7.024;2023-03-13T07:31:06;12.60;99.90
13405;DHT22;6773;51.192;7.024;2023-03-13T07:33:33;12.70;99.90
13405;DHT22;6773;51.192;7.024;2023-03-13T07:35:59;12.70;99.90
13405;DHT22;6773;51.192;7.024;2023-03-13T07:38:24;12.70;99.90
13405;DHT22;6773;51.192;7.024;2023-03-13T07:40:52;12.80;99.90
13405;DHT22;6773;51.192;7.024;2023-03-13T07:43:18;12.80;99.90
13405;DHT22;6773;51.192;7.024;2023-03-13T07:45:51;12.90;99.90
13405;DHT22;6773;51.192;7.024;2023-03-13T07:53:09;13.10;99.90
13405;DHT22;6773;51.192;7.024;2023-03-13T07:55:35;13.00;99.90
13405;DHT22;6773;51.192;7.024;2023-03-13T08:00:26;13.00;99.90
13405;DHT22;6773;51.192;7.024;2023-03-13T08:05:18;13.10;99.90
13405;DHT22;6773;51.192;7.024;2023-03-13T08:07:44;13.10;99.90
13405;DHT22;6773;51.192;7.024;2023-03-13T08:10:10;13.10;99.90
13405;DHT22;6773;51.192;7.024;2023-03-13T08:12:35;13.10;99.90
13405;DHT22;6773;51.192;7.024;2023-03-13T08:15:01;13.10;99.90
13405;DHT22;6773;51.192;7.024;2023-03-13T08:17:29;13.10;99.90
13405;DHT22;6773;51.192;7.024;2023-03-13T08:19:55;13.10;99.90
13405;DHT22;6773;51.192;7.024;2023-03-13T08:22:21;13.10;99.90
13405;DHT22;6773;51.192;7.024;2023-03-13T08:24:47;13.10;99.90
13405;DHT22;6773;51.192;7.024;2023-03-13T08:29:38;13.10;99.90
13405;DHT22;6773;51.192;7.024;2023-03-13T08:32:04;13.20;99.90
13405;DHT22;6773;51.192;7.024;2023-03-13T08:36:56;13.20;99.90
13405;DHT22;6773;51.192;7.024;2023-03-13T08:41:48;13.30;99.90
13405;DHT22;6773;51.192;7.024;2023-03-13T08:44:16;13.30;99.90
13405;DHT22;6773;51.192;7.024;2023-03-13T08:46:42;13.30;99.90
13405;DHT22;6773;51.192;7.024;2023-03-13T08:49:09;13.30;99.90
13405;DHT22;6773;51.192;7.024;2023-03-13T08:51:35;13.40;99.90
13405;DHT22;6773;51.192;7.024;2023-03-13T08:54:02;13.40;99.90
13405;DHT22;6773;51.192;7.024;2023-03-13T08:56:29;13.40;99.90
13405;DHT22;6773;51.192;7.024;2023-03-13T08:58:58;13.40;99.90
13405;DHT22;6773;51.192;7.024;2023-03-13T09:01:26;13.50;99.90
13405;DHT22;6773;51.192;7.024;2023-03-13T09:03:52;13.50;99.90
13405;DHT22;6773;51.192;7.024;2023-03-13T09:06:18;13.50;99.90
13405;DHT22;6773;51.192;7.024;2023-03-13T09:08:44;13.40;99.90
13405;DHT22;6773;51.192;7.024;2023-03-13T09:11:20;13.40;99.90
13405;DHT22;6773;51.192;7.024;2023-03-13T09:13:47;13.40;99.90
13405;DHT22;6773;51.192;7.024;2023-03-13T09:16:18;13.40;99.90
13405;DHT22;6773;51.192;7.024;2023-03-13T09:21:22;13.30;99.90
13405;DHT22;6773;51.192;7.024;2023-03-13T09:23:48;13.40;99.90
13405;DHT22;6773;51.192;7.024;2023-03-13T09:26:14;13.50;99.90
13405;DHT22;6773;51.192;7.024;2023-03-13T09:28:40;13.40;99.90
13405;DHT22;6773;51.192;7.024;2023-03-13T09:31:19;13.50;99.90
13405;DHT22;6773;51.192;7.024;2023-03-13T09:33:48;13.40;99.90
13405;DHT22;6773;51.192;7.024;2023-03-13T09:36:15;13.50;99.90
13405;DHT22;6773;51.192;7.024;2023-03-13T09:38:41;13.60;99.90
13405;DHT22;6773;51.192;7.024;2023-03-13T09:44:02;13.50;99.90
13405;DHT22;6773;51.192;7.024;2023-03-13T09:46:38;13.60;99.90
13405;DHT22;6773;51.192;7.024;2023-03-13T09:49:26;13.70;99.90
13405;DHT22;6773;51.192;7.024;2023-03-13T09:52:14;13.70;99.90
13405;DHT22;6773;51.192;7.024;2023-03-13T09:57:19;13.70;99.90
13405;DHT22;6773;51.192;7.024;2023-03-13T09:59:59;13.70;99.90
13405;DHT22;6773;51.192;7.024;2023-03-13T10:02:33;13.80;99.90
13405;DHT22;6773;51.192;7.024;2023-03-13T10:05:25;13.90;99.90
13405;DHT22;6773;51.192;7.024;2023-03-13T10:08:09;13.90;99.90
13405;DHT22;6773;51.192;7.024;2023-03-13T10:10:39;14.00;99.90
13405;DHT22;6773;51.192;7.024;2023-03-13T10:13:25;14.10;99.90
13405;DHT22;6773;51.192;7.024;2023-03-13T10:15:59;14.20;99.90
13405;DHT22;6773;51.192;7.024;2023-03-13T10:18:25;14.30;99.90
13405;DHT22;6773;51.192;7.024;2023-03-13T10:20:54;14.50;99.90
13405;DHT22;6773;51.192;7.024;2023-03-13T10:25:47;14.50;99.90
13405;DHT22;6773;51.192;7.024;2023-03-13T10:28:15;14.40;99.90
13405;DHT22;6773;51.192;7.024;2023-03-13T10:30:49;14.40;99.90
13405;DHT22;6773;51.192;7.024;2023-03-13T10:33:28;14.40;99.90
13405;DHT22;6773;51.192;7.024;2023-03-13T10:38:54;14.40;99.90
13405;DHT22;6773;51.192;7.024;2023-03-13T10:41:30;14.40;99.90
13405;DHT22;6773;51.192;7.024;2023-03-13T10:44:01;14.40;99.90
13405;DHT22;6773;51.192;7.024;2023-03-13T10:46:30;14.40;99.90
13405;DHT22;6773;51.192;7.024;2023-03-13T10:48:59;14.40;99.90
13405;DHT22;6773;51.192;7.024;2023-03-13T10:51:37;14.40;99.90
13405;DHT22;6773;51.192;7.024;2023-03-13T10:54:28;14.50;99.90
13405;DHT22;6773;51.192;7.024;2023-03-13T10:59:52;14.60;99.90
13405;DHT22;6773;51.192;7.024;2023-03-13T11:05:00;14.60;99.90
13405;DHT22;6773;51.192;7.024;2023-03-13T11:07:33;14.60;99.90
13405;DHT22;6773;51.192;7.024;2023-03-13T11:10:22;14.60;99.90
13405;DHT22;6773;51.192;7.024;2023-03-13T11:12:49;14.70;99.90
13405;DHT22;6773;51.192;7.024;2023-03-13T11:15:28;14.70;99.90
13405;DHT22;6773;51.192;7.024;2023-03-13T11:18:10;14.70;99.90
13405;DHT22;6773;51.192;7.024;2023-03-13T11:20:39;14.70;99.90
13405;DHT22;6773;51.192;7.024;2023-03-13T11:26:09;14.80;99.90
13405;DHT22;6773;51.192;7.024;2023-03-13T11:31:12;14.80;99.90
13405;DHT22;6773;51.192;7.024;2023-03-13T11:44:48;14.90;99.90
13405;DHT22;6773;51.192;7.024;2023-03-13T11:50:09;14.90;99.90
13405;DHT22;6773;51.192;7.024;2023-03-13T12:01:16;15.30;99.90
13405;DHT22;6773;51.192;7.024;2023-03-13T12:06:39;15.50;99.90
13405;DHT22;6773;51.192;7.024;2023-03-13T12:11:59;16.10;99.90
13405;DHT22;6773;51.192;7.024;2023-03-13T12:14:44;16.40;99.90
13405;DHT22;6773;51.192;7.024;2023-03-13T12:17:28;16.30;99.90
13405;DHT22;6773;51.192;7.024;2023-03-13T12:22:54;15.80;99.90
13405;DHT22;6773;51.192;7.024;2023-03-13T12:25:27;15.60;99.90
13405;DHT22;6773;51.192;7.024;2023-03-13T12:28:03;15.60;99.90
13405;DHT22;6773;51.192;7.024;2023-03-13T12:30:39;15.50;99.90
13405;DHT22;6773;51.192;7.024;2023-03-13T12:33:34;15.60;99.90
13405;DHT22;6773;51.192;7.024;2023-03-13T12:36:11;15.60;99.90
13405;DHT22;6773;51.192;7.024;2023-03-13T12:38:55;15.80;99.90
13405;DHT22;6773;51.192;7.024;2023-03-13T12:41:30;16.00;99.90
13405;DHT22;6773;51.192;7.024;2023-03-13T12:43:57;16.00;99.90
13405;DHT22;6773;51.192;7.024;2023-03-13T12:46:33;15.90;99.90
13405;DHT22;6773;51.192;7.024;2023-03-13T12:51:58;15.80;99.90
13405;DHT22;6773;51.192;7.024;2023-03-13T12:54:46;15.70;99.90
13405;DHT22;6773;51.192;7.024;2023-03-13T12:57:42;15.70;99.90
13405;DHT22;6773;51.192;7.024;2023-03-13T13:00:22;15.60;99.90
13405;DHT22;6773;51.192;7.024;2023-03-13T13:05:33;15.50;99.90
13405;DHT22;6773;51.192;7.024;2023-03-13T13:10:26;15.60;99.90
13405;DHT22;6773;51.192;7.024;2023-03-13T13:15:59;15.60;99.90
13405;DHT22;6773;51.192;7.024;2023-03-13T13:18:31;15.60;99.90
13405;DHT22;6773;51.192;7.024;2023-03-13T13:23:36;15.70;99.90
13405;DHT22;6773;51.192;7.024;2023-03-13T13:28:51;14.30;99.90
13405;DHT22;6773;51.192;7.024;2023-03-13T13:36:53;15.80;99.90
13405;DHT22;6773;51.192;7.024;2023-03-13T13:39:34;15.80;99.90
13405;DHT22;6773;51.192;7.024;2023-03-13T13:47:25;15.80;99.90
13405;DHT22;6773;51.192;7.024;2023-03-13T13:50:01;15.80;99.90
13405;DHT22;6773;51.192;7.024;2023-03-13T13:52:33;15.80;99.90
13405;DHT22;6773;51.192;7.024;2023-03-13T13:54:59;15.90;99.90
13405;DHT22;6773;51.192;7.024;2023-03-13T13:57:26;16.00;99.90
13405;DHT22;6773;51.192;7.024;2023-03-13T14:02:54;15.90;99.90
13405;DHT22;6773;51.192;7.024;2023-03-13T14:05:29;15.90;99.90
13405;DHT22;6773;51.192;7.024;2023-03-13T14:12:54;15.80;99.90
13405;DHT22;6773;51.192;7.024;2023-03-13T14:15:28;15.80;99.90
13405;DHT22;6773;51.192;7.024;2023-03-13T14:17:58;15.80;99.90
13405;DHT22;6773;51.192;7.024;2023-03-13T14:22:54;15.70;99.90
13405;DHT22;6773;51.192;7.024;2023-03-13T14:25:21;15.60;99.90
13405;DHT22;6773;51.192;7.024;2023-03-13T14:27:49;15.70;99.90
13405;DHT22;6773;51.192;7.024;2023-03-13T14:30:17;15.60;99.90
13405;DHT22;6773;51.192;7.024;2023-03-13T14:32:43;15.70;99.90
13405;DHT22;6773;51.192;7.024;2023-03-13T14:35:13;15.60;99.90
13405;DHT22;6773;51.192;7.024;2023-03-13T14:37:47;15.50;99.90
13405;DHT22;6773;51.192;7.024;2023-03-13T14:40:23;15.60;99.90
13405;DHT22;6773;51.192;7.024;2023-03-13T14:42:54;15.50;99.90
13405;DHT22;6773;51.192;7.024;2023-03-13T14:45:35;15.50;99.90
13405;DHT22;6773;51.192;7.024;2023-03-13T14:48:28;15.50;99.90
13405;DHT22;6773;51.192;7.024;2023-03-13T14:51:08;15.50;99.90
13405;DHT22;6773;51.192;7.024;2023-03-13T14:53:35;15.50;99.90
13405;DHT22;6773;51.192;7.024;2023-03-13T14:56:16;15.50;99.90
13405;DHT22;6773;51.192;7.024;2023-03-13T14:58:44;15.50;99.90
13405;DHT22;6773;51.192;7.024;2023-03-13T15:01:30;15.50;99.90
13405;DHT22;6773;51.192;7.024;2023-03-13T15:03:56;15.40;99.90
13405;DHT22;6773;51.192;7.024;2023-03-13T15:06:23;15.50;99.90
13405;DHT22;6773;51.192;7.024;2023-03-13T15:11:38;15.30;99.90
13405;DHT22;6773;51.192;7.024;2023-03-13T15:14:32;15.30;99.90
13405;DHT22;6773;51.192;7.024;2023-03-13T15:16:58;15.30;99.90
13405;DHT22;6773;51.192;7.024;2023-03-13T15:19:24;15.30;99.90
13405;DHT22;6773;51.192;7.024;2023-03-13T15:21:50;15.30;99.90
13405;DHT22;6773;51.192;7.024;2023-03-13T15:24:17;15.30;99.90
13405;DHT22;6773;51.192;7.024;2023-03-13T15:26:42;15.30;99.90
13405;DHT22;6773;51.192;7.024;2023-03-13T15:29:09;15.30;99.90
13405;DHT22;6773;51.192;7.024;2023-03-13T15:31:35;15.20;99.90
13405;DHT22;6773;51.192;7.024;2023-03-13T15:34:01;15.20;99.90
13405;DHT22;6773;51.192;7.024;2023-03-13T15:36:28;15.20;99.90
13405;DHT22;6773;51.192;7.024;2023-03-13T15:38:55;15.20;99.90
13405;DHT22;6773;51.192;7.024;2023-03-13T15:41:22;15.20;99.90
13405;DHT22;6773;51.192;7.024;2023-03-13T15:43:48;15.20;99.90
13405;DHT22;6773;51.192;7.024;2023-03-13T15:46:18;15.30;99.90
13405;DHT22;6773;51.192;7.024;2023-03-13T15:48:44;15.40;99.90
13405;DHT22;6773;51.192;7.024;2023-03-13T15:51:13;15.50;99.90
13405;DHT22;6773;51.192;7.024;2023-03-13T15:53:40;15.50;99.90
13405;DHT22;6773;51.192;7.024;2023-03-13T16:01:03;16.20;99.90
13405;DHT22;6773;51.192;7.024;2023-03-13T16:03:29;16.10;99.90
13405;DHT22;6773;51.192;7.024;2023-03-13T16:05:55;16.10;99.90
13405;DHT22;6773;51.192;7.024;2023-03-13T16:08:23;16.10;99.90
13405;DHT22;6773;51.192;7.024;2023-03-13T16:10:50;16.10;99.90
13405;DHT22;6773;51.192;7.024;2023-03-13T16:13:16;16.00;99.90
13405;DHT22;6773;51.192;7.024;2023-03-13T16:15:43;15.70;99.90
13405;DHT22;6773;51.192;7.024;2023-03-13T16:18:15;15.70;99.90
13405;DHT22;6773;51.192;7.024;2023-03-13T16:20:43;15.60;99.90
13405;DHT22;6773;51.192;7.024;2023-03-13T16:23:08;15.60;99.90
13405;DHT22;6773;51.192;7.024;2023-03-13T16:25:34;15.40;99.90
13405;DHT22;6773;51.192;7.024;2023-03-13T16:27:59;15.40;99.90
13405;DHT22;6773;51.192;7.024;2023-03-13T16:30:28;15.40;99.90
13405;DHT22;6773;51.192;7.024;2023-03-13T16:32:55;15.30;99.90
13405;DHT22;6773;51.192;7.024;2023-03-13T16:35:22;15.20;99.90
13405;DHT22;6773;51.192;7.024;2023-03-13T16:37:48;15.40;99.90
13405;DHT22;6773;51.192;7.024;2023-03-13T16:40:16;15.30;99.90
13405;DHT22;6773;51.192;7.024;2023-03-13T16:42:42;15.20;99.90
13405;DHT22;6773;51.192;7.024;2023-03-13T16:45:08;15.10;99.90
13405;DHT22;6773;51.192;7.024;2023-03-13T16:47:34;15.00;99.90
13405;DHT22;6773;51.192;7.024;2023-03-13T16:50:16;14.80;99.90
13405;DHT22;6773;51.192;7.024;2023-03-13T16:52:43;14.80;99.90
13405;DHT22;6773;51.192;7.024;2023-03-13T16:55:08;14.70;99.90
13405;DHT22;6773;51.192;7.024;2023-03-13T16:57:35;14.60;99.90
13405;DHT22;6773;51.192;7.024;2023-03-13T17:02:29;14.50;99.90
13405;DHT22;6773;51.192;7.024;2023-03-13T17:04:54;14.40;99.90
13405;DHT22;6773;51.192;7.024;2023-03-13T17:07:22;14.40;99.90
13405;DHT22;6773;51.192;7.024;2023-03-13T17:09:49;14.40;99.90
13405;DHT22;6773;51.192;7.024;2023-03-13T17:12:16;14.30;99.90
13405;DHT22;6773;51.192;7.024;2023-03-13T17:14:43;14.30;99.90
13405;DHT22;6773;51.192;7.024;2023-03-13T17:17:17;14.20;99.90
13405;DHT22;6773;51.192;7.024;2023-03-13T17:19:44;14.20;99.90
13405;DHT22;6773;51.192;7.024;2023-03-13T17:22:12;14.20;99.90
13405;DHT22;6773;51.192;7.024;2023-03-13T17:24:38;14.10;99.90
13405;DHT22;6773;51.192;7.024;2023-03-13T17:27:04;14.10;99.90
13405;DHT22;6773;51.192;7.024;2023-03-13T17:29:34;14.00;99.90
13405;DHT22;6773;51.192;7.024;2023-03-13T17:32:00;14.10;99.90
13405;DHT22;6773;51.192;7.024;2023-03-13T17:36:55;14.00;99.90
13405;DHT22;6773;51.192;7.024;2023-03-13T17:39:20;14.00;99.90
13405;DHT22;6773;51.192;7.024;2023-03-13T17:41:49;14.00;99.90
13405;DHT22;6773;51.192;7.024;2023-03-13T17:44:14;14.00;99.90
13405;DHT22;6773;51.192;7.024;2023-03-13T17:46:45;14.00;99.90
13405;DHT22;6773;51.192;7.024;2023-03-13T17:49:12;14.00;99.90
13405;DHT22;6773;51.192;7.024;2023-03-13T17:54:06;14.00;99.90
13405;DHT22;6773;51.192;7.024;2023-03-13T17:56:34;14.00;99.90
13405;DHT22;6773;51.192;7.024;2023-03-13T17:59:04;13.90;99.90
13405;DHT22;6773;51.192;7.024;2023-03-13T18:01:32;13.90;99.90
13405;DHT22;6773;51.192;7.024;2023-03-13T18:09:06;13.80;99.90
13405;DHT22;6773;51.192;7.024;2023-03-13T18:11:34;10.40;99.90
13405;DHT22;6773;51.192;7.024;2023-03-13T18:14:00;13.80;99.90
13405;DHT22;6773;51.192;7.024;2023-03-13T18:16:33;13.70;99.90
13405;DHT22;6773;51.192;7.024;2023-03-13T18:19:07;13.70;99.90
13405;DHT22;6773;51.192;7.024;2023-03-13T18:21:33;13.60;99.90
13405;DHT22;6773;51.192;7.024;2023-03-13T18:23:59;13.60;99.90
13405;DHT22;6773;51.192;7.024;2023-03-13T18:26:29;13.60;99.90
13405;DHT22;6773;51.192;7.024;2023-03-13T18:28:56;13.50;99.90
13405;DHT22;6773;51.192;7.024;2023-03-13T18:31:29;13.50;99.90
13405;DHT22;6773;51.192;7.024;2023-03-13T18:33:57;13.50;99.90
13405;DHT22;6773;51.192;7.024;2023-03-13T18:36:23;13.50;99.90
13405;DHT22;6773;51.192;7.024;2023-03-13T18:38:49;13.50;99.90
13405;DHT22;6773;51.192;7.024;2023-03-13T18:41:16;13.50;99.90
13405;DHT22;6773;51.192;7.024;2023-03-13T18:43:43;13.50;99.90
13405;DHT22;6773;51.192;7.024;2023-03-13T18:46:28;13.50;99.90
13405;DHT22;6773;51.192;7.024;2023-03-13T18:48:56;13.50;99.90
13405;DHT22;6773;51.192;7.024;2023-03-13T18:51:23;13.50;99.90
13405;DHT22;6773;51.192;7.024;2023-03-13T18:53:50;13.40;99.90
13405;DHT22;6773;51.192;7.024;2023-03-13T18:56:23;13.40;99.90
13405;DHT22;6773;51.192;7.024;2023-03-13T18:58:53;13.50;99.90
13405;DHT22;6773;51.192;7.024;2023-03-13T19:01:21;13.40;99.90
13405;DHT22;6773;51.192;7.024;2023-03-13T19:03:47;13.40;99.90
13405;DHT22;6773;51.192;7.024;2023-03-13T19:06:20;13.40;99.90
13405;DHT22;6773;51.192;7.024;2023-03-13T19:08:47;13.40;99.90
13405;DHT22;6773;51.192;7.024;2023-03-13T19:11:15;13.40;99.90